sensor_id;sensor_type;location;lat;lon;timestamp;P1;durP1;ratioP1;P2;durP2;ratioP2
7683;SDS011;3884;48.616;12.872;2022-09-09T00:00:47;3.07;;;1.83;;
7683;SDS011;3884;48.616;12.872;2022-09-09T00:03:20;3.57;;;1.77;;
7683;SDS011;3884;48.616;12.872;2022-09-09T00:05:53;2.30;;;2.10;;
7683;SDS011;3884;48.616;12.872;2022-09-09T00:08:28;2.80;;;2.20;;
7683;SDS011;3884;48.616;12.872;2022-09-09T00:11:08;1.87;;;1.77;;
7683;SDS011;3884;48.616;12.872;2022-09-09T00:13:40;4.37;;;2.40;;
7683;SDS011;3884;48.616;12.872;2022-09-09T00:16:12;3.07;;;2.00;;
7683;SDS011;3884;48.616;12.872;2022-09-09T00:18:47;3.63;;;1.97;;
7683;SDS011;3884;48.616;12.872;2022-09-09T00:21:22;2.60;;;2.13;;
7683;SDS011;3884;48.616;12.872;2022-09-09T00:23:57;2.00;;;1.80;;
7683;SDS011;3884;48.616;12.872;2022-09-09T00:26:27;2.00;;;1.80;;
7683;SDS011;3884;48.616;12.872;2022-09-09T00:29:00;2.20;;;2.00;;
7683;SDS011;3884;48.616;12.872;2022-09-09T00:31:36;3.13;;;2.03;;
7683;SDS011;3884;48.616;12.872;2022-09-09T00:34:04;4.23;;;2.03;;
7683;SDS011;3884;48.616;12.872;2022-09-09T00:36:40;2.20;;;2.00;;
7683;SDS011;3884;48.616;12.872;2022-09-09T00:39:09;2.10;;;1.90;;
7683;SDS011;3884;48.616;12.872;2022-09-09T00:41:55;4.43;;;2.00;;
7683;SDS011;3884;48.616;12.872;2022-09-09T00:44:36;2.83;;;1.90;;
7683;SDS011;3884;48.616;12.872;2022-09-09T00:47:09;2.70;;;2.10;;
7683;SDS011;3884;48.616;12.872;2022-09-09T00:49:51;2.10;;;1.90;;
7683;SDS011;3884;48.616;12.872;2022-09-09T00:52:30;2.77;;;2.10;;
7683;SDS011;3884;48.616;12.872;2022-09-09T00:55:05;4.07;;;2.00;;
7683;SDS011;3884;48.616;12.872;2022-09-09T00:57:37;3.70;;;1.80;;
7683;SDS011;3884;48.616;12.872;2022-09-09T01:00:16;2.30;;;2.10;;
7683;SDS011;3884;48.616;12.872;2022-09-09T01:02:50;2.30;;;2.10;;
7683;SDS011;3884;48.616;12.872;2022-09-09T01:05:25;2.30;;;2.10;;
7683;SDS011;3884;48.616;12.872;2022-09-09T01:08:03;2.07;;;1.90;;
7683;SDS011;3884;48.616;12.872;2022-09-09T01:10:39;2.87;;;2.30;;
7683;SDS011;3884;48.616;12.872;2022-09-09T01:13:13;3.43;;;2.37;;
7683;SDS011;3884;48.616;12.872;2022-09-09T01:15:43;2.10;;;1.90;;
7683;SDS011;3884;48.616;12.872;2022-09-09T01:18:13;2.53;;;2.00;;
7683;SDS011;3884;48.616;12.872;2022-09-09T01:20:45;3.80;;;1.97;;
7683;SDS011;3884;48.616;12.872;2022-09-09T01:23:33;4.93;;;1.90;;
7683;SDS011;3884;48.616;12.872;2022-09-09T01:26:25;3.57;;;1.97;;
7683;SDS011;3884;48.616;12.872;2022-09-09T01:28:57;3.03;;;2.00;;
7683;SDS011;3884;48.616;12.872;2022-09-09T01:31:32;2.47;;;2.27;;
7683;SDS011;3884;48.616;12.872;2022-09-09T01:34:07;2.50;;;1.90;;
7683;SDS011;3884;48.616;12.872;2022-09-09T01:36:38;2.90;;;1.87;;
7683;SDS011;3884;48.616;12.872;2022-09-09T01:39:11;2.10;;;1.90;;
7683;SDS011;3884;48.616;12.872;2022-09-09T01:41:40;3.50;;;2.20;;
7683;SDS011;3884;48.616;12.872;2022-09-09T01:44:10;4.43;;;2.00;;
7683;SDS011;3884;48.616;12.872;2022-09-09T01:46:41;4.03;;;2.23;;
7683;SDS011;3884;48.616;12.872;2022-09-09T01:49:14;3.07;;;2.03;;
7683;SDS011;3884;48.616;12.872;2022-09-09T01:51:43;1.80;;;1.70;;
7683;SDS011;3884;48.616;12.872;2022-09-09T01:54:13;4.90;;;2.20;;
7683;SDS011;3884;48.616;12.872;2022-09-09T01:56:45;1.93;;;1.60;;
7683;SDS011;3884;48.616;12.872;2022-09-09T01:59:24;2.60;;;2.00;;
7683;SDS011;3884;48.616;12.872;2022-09-09T02:02:07;2.37;;;1.70;;
7683;SDS011;3884;48.616;12.872;2022-09-09T02:04:41;2.27;;;1.80;;
7683;SDS011;3884;48.616;12.872;2022-09-09T02:07:22;3.43;;;2.37;;
7683;SDS011;3884;48.616;12.872;2022-09-09T02:10:02;2.17;;;1.90;;
7683;SDS011;3884;48.616;12.872;2022-09-09T02:12:38;3.70;;;2.20;;
7683;SDS011;3884;48.616;12.872;2022-09-09T02:15:11;4.07;;;2.30;;
7683;SDS011;3884;48.616;12.872;2022-09-09T02:17:48;3.10;;;1.73;;
7683;SDS011;3884;48.616;12.872;2022-09-09T02:20:18;3.17;;;1.87;;
7683;SDS011;3884;48.616;12.872;2022-09-09T02:22:56;2.77;;;2.10;;
7683;SDS011;3884;48.616;12.872;2022-09-09T02:25:25;3.30;;;1.70;;
7683;SDS011;3884;48.616;12.872;2022-09-09T02:28:04;4.17;;;1.80;;
7683;SDS011;3884;48.616;12.872;2022-09-09T02:30:34;5.70;;;2.20;;
7683;SDS011;3884;48.616;12.872;2022-09-09T02:33:05;1.90;;;1.70;;
7683;SDS011;3884;48.616;12.872;2022-09-09T02:35:44;2.93;;;1.80;;
7683;SDS011;3884;48.616;12.872;2022-09-09T02:38:16;2.97;;;1.80;;
7683;SDS011;3884;48.616;12.872;2022-09-09T02:40:55;2.80;;;1.87;;
7683;SDS011;3884;48.616;12.872;2022-09-09T02:43:24;2.73;;;1.80;;
7683;SDS011;3884;48.616;12.872;2022-09-09T02:45:53;2.20;;;2.00;;
7683;SDS011;3884;48.616;12.872;2022-09-09T02:48:31;4.03;;;2.53;;
7683;SDS011;3884;48.616;12.872;2022-09-09T02:51:06;3.30;;;2.60;;
7683;SDS011;3884;48.616;12.872;2022-09-09T02:53:39;4.33;;;2.33;;
7683;SDS011;3884;48.616;12.872;2022-09-09T02:56:11;4.20;;;2.17;;
7683;SDS011;3884;48.616;12.872;2022-09-09T02:58:45;2.87;;;1.87;;
7683;SDS011;3884;48.616;12.872;2022-09-09T03:01:12;2.90;;;1.87;;
7683;SDS011;3884;48.616;12.872;2022-09-09T03:03:40;4.53;;;1.70;;
7683;SDS011;3884;48.616;12.872;2022-09-09T03:06:11;2.40;;;2.00;;
7683;SDS011;3884;48.616;12.872;2022-09-09T03:08:39;6.30;;;2.30;;
7683;SDS011;3884;48.616;12.872;2022-09-09T03:11:07;3.40;;;2.40;;
7683;SDS011;3884;48.616;12.872;2022-09-09T03:13:36;3.80;;;2.10;;
7683;SDS011;3884;48.616;12.872;2022-09-09T03:16:05;5.17;;;2.00;;
7683;SDS011;3884;48.616;12.872;2022-09-09T03:18:39;2.50;;;2.30;;
7683;SDS011;3884;48.616;12.872;2022-09-09T03:21:07;4.97;;;2.43;;
7683;SDS011;3884;48.616;12.872;2022-09-09T03:23:36;3.57;;;2.30;;
7683;SDS011;3884;48.616;12.872;2022-09-09T03:26:03;3.30;;;2.40;;
7683;SDS011;3884;48.616;12.872;2022-09-09T03:28:39;2.93;;;1.97;;
7683;SDS011;3884;48.616;12.872;2022-09-09T03:31:07;4.57;;;2.77;;
7683;SDS011;3884;48.616;12.872;2022-09-09T03:33:38;5.17;;;2.30;;
7683;SDS011;3884;48.616;12.872;2022-09-09T03:36:07;3.17;;;2.23;;
7683;SDS011;3884;48.616;12.872;2022-09-09T03:38:35;3.27;;;2.13;;
7683;SDS011;3884;48.616;12.872;2022-09-09T03:41:02;5.03;;;2.60;;
7683;SDS011;3884;48.616;12.872;2022-09-09T03:43:33;4.27;;;3.17;;
7683;SDS011;3884;48.616;12.872;2022-09-09T03:46:00;4.47;;;3.13;;
7683;SDS011;3884;48.616;12.872;2022-09-09T03:48:29;3.10;;;2.80;;
7683;SDS011;3884;48.616;12.872;2022-09-09T03:50:57;4.63;;;3.60;;
7683;SDS011;3884;48.616;12.872;2022-09-09T03:53:26;6.73;;;3.70;;
7683;SDS011;3884;48.616;12.872;2022-09-09T03:55:55;5.27;;;3.67;;
7683;SDS011;3884;48.616;12.872;2022-09-09T03:58:26;4.60;;;3.07;;
7683;SDS011;3884;48.616;12.872;2022-09-09T04:00:59;2.67;;;2.47;;
7683;SDS011;3884;48.616;12.872;2022-09-09T04:03:28;4.40;;;3.20;;
7683;SDS011;3884;48.616;12.872;2022-09-09T04:05:58;6.40;;;3.20;;
7683;SDS011;3884;48.616;12.872;2022-09-09T04:08:28;5.73;;;2.40;;
7683;SDS011;3884;48.616;12.872;2022-09-09T04:10:57;5.03;;;2.60;;
7683;SDS011;3884;48.616;12.872;2022-09-09T04:13:25;3.87;;;2.53;;
7683;SDS011;3884;48.616;12.872;2022-09-09T04:15:52;3.10;;;2.80;;
7683;SDS011;3884;48.616;12.872;2022-09-09T04:18:21;4.90;;;2.90;;
7683;SDS011;3884;48.616;12.872;2022-09-09T04:20:51;3.53;;;3.10;;
7683;SDS011;3884;48.616;12.872;2022-09-09T04:23:21;3.50;;;3.20;;
7683;SDS011;3884;48.616;12.872;2022-09-09T04:25:50;4.23;;;3.17;;
7683;SDS011;3884;48.616;12.872;2022-09-09T04:28:19;3.37;;;3.07;;
7683;SDS011;3884;48.616;12.872;2022-09-09T04:30:49;4.17;;;3.30;;
7683;SDS011;3884;48.616;12.872;2022-09-09T04:33:17;4.33;;;3.87;;
7683;SDS011;3884;48.616;12.872;2022-09-09T04:35:48;5.70;;;4.17;;
7683;SDS011;3884;48.616;12.872;2022-09-09T04:38:20;6.57;;;4.50;;
7683;SDS011;3884;48.616;12.872;2022-09-09T04:40:49;4.60;;;4.03;;
7683;SDS011;3884;48.616;12.872;2022-09-09T04:43:19;5.27;;;3.20;;
7683;SDS011;3884;48.616;12.872;2022-09-09T04:45:48;6.83;;;3.40;;
7683;SDS011;3884;48.616;12.872;2022-09-09T04:48:18;3.77;;;3.33;;
7683;SDS011;3884;48.616;12.872;2022-09-09T04:50:53;5.87;;;3.90;;
7683;SDS011;3884;48.616;12.872;2022-09-09T04:53:22;5.37;;;4.10;;
7683;SDS011;3884;48.616;12.872;2022-09-09T04:55:51;5.03;;;4.50;;
7683;SDS011;3884;48.616;12.872;2022-09-09T04:58:18;5.67;;;4.93;;
7683;SDS011;3884;48.616;12.872;2022-09-09T05:00:47;7.67;;;6.03;;
7683;SDS011;3884;48.616;12.872;2022-09-09T05:03:16;6.20;;;5.53;;
7683;SDS011;3884;48.616;12.872;2022-09-09T05:05:44;6.70;;;6.10;;
7683;SDS011;3884;48.616;12.872;2022-09-09T05:08:12;10.53;;;6.00;;
7683;SDS011;3884;48.616;12.872;2022-09-09T05:10:41;6.13;;;5.53;;
7683;SDS011;3884;48.616;12.872;2022-09-09T05:13:09;7.87;;;6.23;;
7683;SDS011;3884;48.616;12.872;2022-09-09T05:15:36;7.40;;;6.70;;
7683;SDS011;3884;48.616;12.872;2022-09-09T05:18:03;9.00;;;8.10;;
7683;SDS011;3884;48.616;12.872;2022-09-09T05:20:31;10.97;;;8.07;;
7683;SDS011;3884;48.616;12.872;2022-09-09T05:23:00;8.43;;;7.60;;
7683;SDS011;3884;48.616;12.872;2022-09-09T05:25:29;8.10;;;7.30;;
7683;SDS011;3884;48.616;12.872;2022-09-09T05:27:57;8.80;;;7.03;;
7683;SDS011;3884;48.616;12.872;2022-09-09T05:30:25;8.70;;;7.80;;
7683;SDS011;3884;48.616;12.872;2022-09-09T05:32:52;8.07;;;7.27;;
7683;SDS011;3884;48.616;12.872;2022-09-09T05:35:22;8.27;;;7.20;;
7683;SDS011;3884;48.616;12.872;2022-09-09T05:37:49;7.90;;;7.20;;
7683;SDS011;3884;48.616;12.872;2022-09-09T05:40:16;8.10;;;7.30;;
7683;SDS011;3884;48.616;12.872;2022-09-09T05:42:42;7.97;;;7.17;;
7683;SDS011;3884;48.616;12.872;2022-09-09T05:45:11;7.23;;;6.63;;
7683;SDS011;3884;48.616;12.872;2022-09-09T05:47:38;8.00;;;7.20;;
7683;SDS011;3884;48.616;12.872;2022-09-09T05:50:08;11.20;;;9.47;;
7683;SDS011;3884;48.616;12.872;2022-09-09T05:52:35;12.27;;;10.67;;
7683;SDS011;3884;48.616;12.872;2022-09-09T05:55:05;13.43;;;11.23;;
7683;SDS011;3884;48.616;12.872;2022-09-09T05:57:33;11.17;;;10.07;;
7683;SDS011;3884;48.616;12.872;2022-09-09T06:00:00;13.27;;;10.77;;
7683;SDS011;3884;48.616;12.872;2022-09-09T06:02:40;11.30;;;10.20;;
7683;SDS011;3884;48.616;12.872;2022-09-09T06:05:10;10.97;;;9.90;;
7683;SDS011;3884;48.616;12.872;2022-09-09T06:07:38;11.13;;;9.67;;
7683;SDS011;3884;48.616;12.872;2022-09-09T06:10:08;9.53;;;8.60;;
7683;SDS011;3884;48.616;12.872;2022-09-09T06:12:35;11.07;;;8.60;;
7683;SDS011;3884;48.616;12.872;2022-09-09T06:15:02;9.00;;;8.10;;
7683;SDS011;3884;48.616;12.872;2022-09-09T06:17:30;9.10;;;8.10;;
7683;SDS011;3884;48.616;12.872;2022-09-09T06:19:59;8.53;;;7.63;;
7683;SDS011;3884;48.616;12.872;2022-09-09T06:22:26;8.90;;;7.83;;
7683;SDS011;3884;48.616;12.872;2022-09-09T06:24:53;8.43;;;7.67;;
7683;SDS011;3884;48.616;12.872;2022-09-09T06:27:21;9.83;;;8.63;;
7683;SDS011;3884;48.616;12.872;2022-09-09T06:29:48;8.93;;;8.03;;
7683;SDS011;3884;48.616;12.872;2022-09-09T06:32:15;9.30;;;8.30;;
7683;SDS011;3884;48.616;12.872;2022-09-09T06:34:43;8.63;;;7.80;;
7683;SDS011;3884;48.616;12.872;2022-09-09T06:37:12;7.60;;;6.80;;
7683;SDS011;3884;48.616;12.872;2022-09-09T06:39:44;8.43;;;6.73;;
7683;SDS011;3884;48.616;12.872;2022-09-09T06:42:11;7.33;;;6.63;;
7683;SDS011;3884;48.616;12.872;2022-09-09T06:44:47;8.13;;;7.40;;
7683;SDS011;3884;48.616;12.872;2022-09-09T06:47:24;7.00;;;6.37;;
7683;SDS011;3884;48.616;12.872;2022-09-09T06:49:54;7.23;;;6.53;;
7683;SDS011;3884;48.616;12.872;2022-09-09T06:52:23;7.70;;;6.00;;
7683;SDS011;3884;48.616;12.872;2022-09-09T06:54:50;7.50;;;6.70;;
7683;SDS011;3884;48.616;12.872;2022-09-09T06:57:18;7.77;;;6.33;;
7683;SDS011;3884;48.616;12.872;2022-09-09T06:59:45;8.07;;;6.30;;
7683;SDS011;3884;48.616;12.872;2022-09-09T07:02:12;7.20;;;6.50;;
7683;SDS011;3884;48.616;12.872;2022-09-09T07:04:39;7.83;;;7.10;;
7683;SDS011;3884;48.616;12.872;2022-09-09T07:07:07;7.07;;;6.37;;
7683;SDS011;3884;48.616;12.872;2022-09-09T07:09:37;6.87;;;6.20;;
7683;SDS011;3884;48.616;12.872;2022-09-09T07:12:05;6.97;;;6.27;;
7683;SDS011;3884;48.616;12.872;2022-09-09T07:14:34;7.77;;;6.60;;
7683;SDS011;3884;48.616;12.872;2022-09-09T07:17:06;8.27;;;6.90;;
7683;SDS011;3884;48.616;12.872;2022-09-09T07:19:37;7.83;;;6.60;;
7683;SDS011;3884;48.616;12.872;2022-09-09T07:22:04;7.57;;;6.77;;
7683;SDS011;3884;48.616;12.872;2022-09-09T07:24:33;7.50;;;6.33;;
7683;SDS011;3884;48.616;12.872;2022-09-09T07:27:01;7.97;;;7.17;;
7683;SDS011;3884;48.616;12.872;2022-09-09T07:29:29;8.13;;;7.13;;
7683;SDS011;3884;48.616;12.872;2022-09-09T07:31:56;7.23;;;6.53;;
7683;SDS011;3884;48.616;12.872;2022-09-09T07:34:28;7.43;;;6.60;;
7683;SDS011;3884;48.616;12.872;2022-09-09T07:36:55;6.97;;;6.23;;
7683;SDS011;3884;48.616;12.872;2022-09-09T07:39:23;6.87;;;6.00;;
7683;SDS011;3884;48.616;12.872;2022-09-09T07:41:52;8.17;;;6.90;;
7683;SDS011;3884;48.616;12.872;2022-09-09T07:44:23;9.73;;;8.47;;
7683;SDS011;3884;48.616;12.872;2022-09-09T07:47:00;9.50;;;8.20;;
7683;SDS011;3884;48.616;12.872;2022-09-09T07:49:33;8.37;;;6.83;;
7683;SDS011;3884;48.616;12.872;2022-09-09T07:52:02;7.40;;;6.57;;
7683;SDS011;3884;48.616;12.872;2022-09-09T07:54:30;7.50;;;6.50;;
7683;SDS011;3884;48.616;12.872;2022-09-09T07:56:59;11.43;;;8.40;;
7683;SDS011;3884;48.616;12.872;2022-09-09T07:59:29;10.57;;;9.00;;
7683;SDS011;3884;48.616;12.872;2022-09-09T08:01:57;10.93;;;9.83;;
7683;SDS011;3884;48.616;12.872;2022-09-09T08:04:27;10.20;;;8.33;;
7683;SDS011;3884;48.616;12.872;2022-09-09T08:06:55;10.33;;;9.33;;
7683;SDS011;3884;48.616;12.872;2022-09-09T08:09:25;10.43;;;8.87;;
7683;SDS011;3884;48.616;12.872;2022-09-09T08:12:00;10.83;;;9.20;;
7683;SDS011;3884;48.616;12.872;2022-09-09T08:14:30;12.57;;;10.73;;
7683;SDS011;3884;48.616;12.872;2022-09-09T08:16:57;11.30;;;10.20;;
7683;SDS011;3884;48.616;12.872;2022-09-09T08:19:26;11.40;;;9.87;;
7683;SDS011;3884;48.616;12.872;2022-09-09T08:21:54;11.77;;;10.47;;
7683;SDS011;3884;48.616;12.872;2022-09-09T08:24:22;12.00;;;10.17;;
7683;SDS011;3884;48.616;12.872;2022-09-09T08:26:50;12.63;;;10.57;;
7683;SDS011;3884;48.616;12.872;2022-09-09T08:29:21;13.57;;;11.00;;
7683;SDS011;3884;48.616;12.872;2022-09-09T08:31:52;11.57;;;10.37;;
7683;SDS011;3884;48.616;12.872;2022-09-09T08:34:22;14.77;;;10.80;;
7683;SDS011;3884;48.616;12.872;2022-09-09T08:36:52;12.17;;;10.60;;
7683;SDS011;3884;48.616;12.872;2022-09-09T08:39:25;13.57;;;11.40;;
7683;SDS011;3884;48.616;12.872;2022-09-09T08:41:56;14.07;;;11.83;;
7683;SDS011;3884;48.616;12.872;2022-09-09T08:44:47;13.20;;;11.50;;
7683;SDS011;3884;48.616;12.872;2022-09-09T08:47:30;11.83;;;10.70;;
7683;SDS011;3884;48.616;12.872;2022-09-09T08:50:13;12.50;;;10.83;;
7683;SDS011;3884;48.616;12.872;2022-09-09T08:52:52;11.90;;;10.67;;
7683;SDS011;3884;48.616;12.872;2022-09-09T08:55:27;12.77;;;11.20;;
7683;SDS011;3884;48.616;12.872;2022-09-09T08:58:05;15.90;;;11.57;;
7683;SDS011;3884;48.616;12.872;2022-09-09T09:00:40;13.97;;;11.20;;
7683;SDS011;3884;48.616;12.872;2022-09-09T09:03:19;12.57;;;11.27;;
7683;SDS011;3884;48.616;12.872;2022-09-09T09:05:55;13.00;;;11.40;;
7683;SDS011;3884;48.616;12.872;2022-09-09T09:08:29;13.23;;;11.80;;
7683;SDS011;3884;48.616;12.872;2022-09-09T09:11:00;13.87;;;12.13;;
7683;SDS011;3884;48.616;12.872;2022-09-09T09:13:30;17.03;;;12.73;;
7683;SDS011;3884;48.616;12.872;2022-09-09T09:16:06;12.37;;;11.10;;
7683;SDS011;3884;48.616;12.872;2022-09-09T09:18:41;12.97;;;11.67;;
7683;SDS011;3884;48.616;12.872;2022-09-09T09:21:08;12.30;;;10.63;;
7683;SDS011;3884;48.616;12.872;2022-09-09T09:23:45;12.57;;;10.70;;
7683;SDS011;3884;48.616;12.872;2022-09-09T09:26:16;11.30;;;10.10;;
7683;SDS011;3884;48.616;12.872;2022-09-09T09:28:45;10.17;;;9.10;;
7683;SDS011;3884;48.616;12.872;2022-09-09T09:31:15;8.90;;;8.00;;
7683;SDS011;3884;48.616;12.872;2022-09-09T09:33:48;8.27;;;7.17;;
7683;SDS011;3884;48.616;12.872;2022-09-09T09:36:19;8.67;;;7.73;;
7683;SDS011;3884;48.616;12.872;2022-09-09T09:38:52;8.63;;;7.57;;
7683;SDS011;3884;48.616;12.872;2022-09-09T09:41:29;7.20;;;6.53;;
7683;SDS011;3884;48.616;12.872;2022-09-09T09:43:57;7.73;;;6.57;;
7683;SDS011;3884;48.616;12.872;2022-09-09T09:46:27;8.10;;;6.97;;
7683;SDS011;3884;48.616;12.872;2022-09-09T09:49:08;6.47;;;5.87;;
7683;SDS011;3884;48.616;12.872;2022-09-09T09:51:39;8.37;;;6.40;;
7683;SDS011;3884;48.616;12.872;2022-09-09T09:54:08;7.23;;;6.10;;
7683;SDS011;3884;48.616;12.872;2022-09-09T09:56:44;7.20;;;6.23;;
7683;SDS011;3884;48.616;12.872;2022-09-09T09:59:19;6.57;;;5.93;;
7683;SDS011;3884;48.616;12.872;2022-09-09T10:01:48;6.13;;;5.50;;
7683;SDS011;3884;48.616;12.872;2022-09-09T10:04:17;6.00;;;5.40;;
7683;SDS011;3884;48.616;12.872;2022-09-09T10:06:47;7.00;;;5.30;;
7683;SDS011;3884;48.616;12.872;2022-09-09T10:09:21;7.67;;;5.50;;
7683;SDS011;3884;48.616;12.872;2022-09-09T10:11:52;6.40;;;5.80;;
7683;SDS011;3884;48.616;12.872;2022-09-09T10:14:24;6.20;;;5.60;;
7683;SDS011;3884;48.616;12.872;2022-09-09T10:17:04;9.47;;;6.40;;
7683;SDS011;3884;48.616;12.872;2022-09-09T10:19:41;6.50;;;5.80;;
7683;SDS011;3884;48.616;12.872;2022-09-09T10:22:23;8.47;;;5.70;;
7683;SDS011;3884;48.616;12.872;2022-09-09T10:25:05;7.07;;;6.37;;
7683;SDS011;3884;48.616;12.872;2022-09-09T10:27:48;5.80;;;5.20;;
7683;SDS011;3884;48.616;12.872;2022-09-09T10:30:29;6.30;;;5.70;;
7683;SDS011;3884;48.616;12.872;2022-09-09T10:33:09;9.13;;;5.57;;
7683;SDS011;3884;48.616;12.872;2022-09-09T10:35:43;7.33;;;5.33;;
7683;SDS011;3884;48.616;12.872;2022-09-09T10:38:19;5.43;;;4.40;;
7683;SDS011;3884;48.616;12.872;2022-09-09T10:44:05;4.63;;;4.13;;
7683;SDS011;3884;48.616;12.872;2022-09-09T10:47:05;8.63;;;4.80;;
7683;SDS011;3884;48.616;12.872;2022-09-09T10:50:01;4.50;;;4.10;;
7683;SDS011;3884;48.616;12.872;2022-09-09T10:52:46;5.43;;;4.50;;
7683;SDS011;3884;48.616;12.872;2022-09-09T10:55:23;6.07;;;5.20;;
7683;SDS011;3884;48.616;12.872;2022-09-09T10:57:54;5.23;;;4.73;;
7683;SDS011;3884;48.616;12.872;2022-09-09T11:00:25;6.33;;;5.37;;
7683;SDS011;3884;48.616;12.872;2022-09-09T11:02:58;5.50;;;5.00;;
7683;SDS011;3884;48.616;12.872;2022-09-09T11:05:28;6.00;;;5.40;;
7683;SDS011;3884;48.616;12.872;2022-09-09T11:08:01;6.73;;;5.80;;
7683;SDS011;3884;48.616;12.872;2022-09-09T11:10:34;5.63;;;5.13;;
7683;SDS011;3884;48.616;12.872;2022-09-09T11:13:09;5.57;;;5.00;;
7683;SDS011;3884;48.616;12.872;2022-09-09T11:15:41;5.63;;;4.57;;
7683;SDS011;3884;48.616;12.872;2022-09-09T11:18:11;5.60;;;4.70;;
7683;SDS011;3884;48.616;12.872;2022-09-09T11:20:43;4.90;;;4.33;;
7683;SDS011;3884;48.616;12.872;2022-09-09T11:23:15;4.90;;;4.40;;
7683;SDS011;3884;48.616;12.872;2022-09-09T11:25:48;5.57;;;4.20;;
7683;SDS011;3884;48.616;12.872;2022-09-09T11:28:28;4.77;;;4.27;;
7683;SDS011;3884;48.616;12.872;2022-09-09T11:31:12;6.03;;;4.50;;
7683;SDS011;3884;48.616;12.872;2022-09-09T11:33:56;4.10;;;3.70;;
7683;SDS011;3884;48.616;12.872;2022-09-09T11:36:50;4.60;;;4.20;;
7683;SDS011;3884;48.616;12.872;2022-09-09T11:39:39;4.57;;;3.87;;
7683;SDS011;3884;48.616;12.872;2022-09-09T11:42:27;6.97;;;4.60;;
7683;SDS011;3884;48.616;12.872;2022-09-09T11:44:54;4.73;;;4.27;;
7683;SDS011;3884;48.616;12.872;2022-09-09T11:47:23;6.50;;;4.70;;
7683;SDS011;3884;48.616;12.872;2022-09-09T11:49:54;5.37;;;4.73;;
7683;SDS011;3884;48.616;12.872;2022-09-09T11:52:23;6.00;;;4.83;;
7683;SDS011;3884;48.616;12.872;2022-09-09T11:55:09;5.47;;;4.80;;
7683;SDS011;3884;48.616;12.872;2022-09-09T11:57:38;5.83;;;4.90;;
7683;SDS011;3884;48.616;12.872;2022-09-09T12:00:06;5.47;;;4.83;;
7683;SDS011;3884;48.616;12.872;2022-09-09T12:02:48;5.10;;;4.53;;
7683;SDS011;3884;48.616;12.872;2022-09-09T12:05:16;5.40;;;4.90;;
7683;SDS011;3884;48.616;12.872;2022-09-09T12:07:46;4.57;;;4.10;;
7683;SDS011;3884;48.616;12.872;2022-09-09T12:10:24;4.60;;;4.20;;
7683;SDS011;3884;48.616;12.872;2022-09-09T12:13:07;4.70;;;3.80;;
7683;SDS011;3884;48.616;12.872;2022-09-09T12:15:46;4.00;;;3.70;;
7683;SDS011;3884;48.616;12.872;2022-09-09T12:18:14;4.50;;;3.67;;
7683;SDS011;3884;48.616;12.872;2022-09-09T12:20:51;6.30;;;3.90;;
7683;SDS011;3884;48.616;12.872;2022-09-09T12:23:30;3.97;;;3.63;;
7683;SDS011;3884;48.616;12.872;2022-09-09T12:26:16;5.80;;;3.83;;
7683;SDS011;3884;48.616;12.872;2022-09-09T12:28:52;4.23;;;3.50;;
7683;SDS011;3884;48.616;12.872;2022-09-09T12:31:27;4.87;;;3.40;;
7683;SDS011;3884;48.616;12.872;2022-09-09T12:34:04;5.73;;;3.90;;
7683;SDS011;3884;48.616;12.872;2022-09-09T12:36:41;4.90;;;3.20;;
7683;SDS011;3884;48.616;12.872;2022-09-09T12:39:10;3.80;;;3.20;;
7683;SDS011;3884;48.616;12.872;2022-09-09T12:41:52;3.77;;;3.30;;
7683;SDS011;3884;48.616;12.872;2022-09-09T12:44:23;4.17;;;3.33;;
7683;SDS011;3884;48.616;12.872;2022-09-09T12:46:50;5.03;;;3.20;;
7683;SDS011;3884;48.616;12.872;2022-09-09T12:49:26;3.67;;;2.90;;
7683;SDS011;3884;48.616;12.872;2022-09-09T12:52:00;3.33;;;3.00;;
7683;SDS011;3884;48.616;12.872;2022-09-09T12:54:30;3.60;;;2.77;;
7683;SDS011;3884;48.616;12.872;2022-09-09T12:56:59;4.73;;;2.87;;
7683;SDS011;3884;48.616;12.872;2022-09-09T12:59:27;3.00;;;2.70;;
7683;SDS011;3884;48.616;12.872;2022-09-09T13:02:02;4.10;;;3.00;;
7683;SDS011;3884;48.616;12.872;2022-09-09T13:04:28;4.67;;;3.17;;
7683;SDS011;3884;48.616;12.872;2022-09-09T13:07:04;4.20;;;2.80;;
7683;SDS011;3884;48.616;12.872;2022-09-09T13:09:36;3.07;;;2.87;;
7683;SDS011;3884;48.616;12.872;2022-09-09T13:12:12;3.83;;;2.90;;
7683;SDS011;3884;48.616;12.872;2022-09-09T13:14:43;3.80;;;2.70;;
7683;SDS011;3884;48.616;12.872;2022-09-09T13:17:15;3.13;;;2.70;;
7683;SDS011;3884;48.616;12.872;2022-09-09T13:19:46;4.70;;;2.67;;
7683;SDS011;3884;48.616;12.872;2022-09-09T13:22:19;4.13;;;2.67;;
7683;SDS011;3884;48.616;12.872;2022-09-09T13:25:01;4.27;;;2.53;;
7683;SDS011;3884;48.616;12.872;2022-09-09T13:27:32;3.53;;;2.70;;
7683;SDS011;3884;48.616;12.872;2022-09-09T13:32:47;4.10;;;2.50;;
7683;SDS011;3884;48.616;12.872;2022-09-09T13:35:26;3.30;;;3.00;;
7683;SDS011;3884;48.616;12.872;2022-09-09T13:37:53;4.53;;;2.80;;
7683;SDS011;3884;48.616;12.872;2022-09-09T13:40:20;4.17;;;3.20;;
7683;SDS011;3884;48.616;12.872;2022-09-09T13:42:50;4.37;;;2.67;;
7683;SDS011;3884;48.616;12.872;2022-09-09T13:45:19;3.77;;;2.50;;
7683;SDS011;3884;48.616;12.872;2022-09-09T13:47:47;2.20;;;2.00;;
7683;SDS011;3884;48.616;12.872;2022-09-09T13:50:21;2.77;;;2.00;;
7683;SDS011;3884;48.616;12.872;2022-09-09T13:52:49;2.67;;;2.10;;
7683;SDS011;3884;48.616;12.872;2022-09-09T13:55:18;2.47;;;2.13;;
7683;SDS011;3884;48.616;12.872;2022-09-09T13:57:51;3.93;;;2.00;;
7683;SDS011;3884;48.616;12.872;2022-09-09T14:00:18;2.63;;;1.93;;
7683;SDS011;3884;48.616;12.872;2022-09-09T14:02:45;3.07;;;1.80;;
7683;SDS011;3884;48.616;12.872;2022-09-09T14:05:13;2.63;;;2.10;;
7683;SDS011;3884;48.616;12.872;2022-09-09T14:07:41;3.67;;;2.50;;
7683;SDS011;3884;48.616;12.872;2022-09-09T14:10:08;3.13;;;2.40;;
7683;SDS011;3884;48.616;12.872;2022-09-09T14:12:35;3.00;;;2.20;;
7683;SDS011;3884;48.616;12.872;2022-09-09T14:15:05;2.90;;;2.40;;
7683;SDS011;3884;48.616;12.872;2022-09-09T14:17:33;2.90;;;2.30;;
7683;SDS011;3884;48.616;12.872;2022-09-09T14:20:01;3.90;;;1.90;;
7683;SDS011;3884;48.616;12.872;2022-09-09T14:22:29;2.57;;;2.30;;
7683;SDS011;3884;48.616;12.872;2022-09-09T14:24:55;2.67;;;2.47;;
7683;SDS011;3884;48.616;12.872;2022-09-09T14:27:23;2.83;;;2.53;;
7683;SDS011;3884;48.616;12.872;2022-09-09T14:29:51;2.90;;;2.33;;
7683;SDS011;3884;48.616;12.872;2022-09-09T14:32:19;2.50;;;2.20;;
7683;SDS011;3884;48.616;12.872;2022-09-09T14:34:47;4.27;;;2.03;;
7683;SDS011;3884;48.616;12.872;2022-09-09T14:37:14;3.50;;;2.57;;
7683;SDS011;3884;48.616;12.872;2022-09-09T14:39:41;4.47;;;2.30;;
7683;SDS011;3884;48.616;12.872;2022-09-09T14:42:09;2.53;;;2.33;;
7683;SDS011;3884;48.616;12.872;2022-09-09T14:44:36;2.57;;;2.27;;
7683;SDS011;3884;48.616;12.872;2022-09-09T14:47:03;5.67;;;2.97;;
7683;SDS011;3884;48.616;12.872;2022-09-09T14:49:32;6.40;;;2.80;;
7683;SDS011;3884;48.616;12.872;2022-09-09T14:51:59;3.40;;;2.60;;
7683;SDS011;3884;48.616;12.872;2022-09-09T14:54:26;2.77;;;2.40;;
7683;SDS011;3884;48.616;12.872;2022-09-09T14:56:53;2.67;;;2.17;;
7683;SDS011;3884;48.616;12.872;2022-09-09T14:59:21;4.30;;;2.30;;
7683;SDS011;3884;48.616;12.872;2022-09-09T15:01:48;3.13;;;2.37;;
7683;SDS011;3884;48.616;12.872;2022-09-09T15:04:15;2.53;;;2.20;;
7683;SDS011;3884;48.616;12.872;2022-09-09T15:06:44;2.63;;;2.13;;
7683;SDS011;3884;48.616;12.872;2022-09-09T15:09:13;3.47;;;2.23;;
7683;SDS011;3884;48.616;12.872;2022-09-09T15:11:40;2.57;;;2.20;;
7683;SDS011;3884;48.616;12.872;2022-09-09T15:14:08;2.27;;;2.07;;
7683;SDS011;3884;48.616;12.872;2022-09-09T15:16:37;3.37;;;2.00;;
7683;SDS011;3884;48.616;12.872;2022-09-09T15:19:05;2.43;;;1.90;;
7683;SDS011;3884;48.616;12.872;2022-09-09T15:21:32;3.37;;;2.10;;
7683;SDS011;3884;48.616;12.872;2022-09-09T15:24:02;2.00;;;1.80;;
7683;SDS011;3884;48.616;12.872;2022-09-09T15:26:32;2.53;;;2.03;;
7683;SDS011;3884;48.616;12.872;2022-09-09T15:28:59;2.47;;;1.93;;
7683;SDS011;3884;48.616;12.872;2022-09-09T15:31:27;2.23;;;1.87;;